Time;durP1;ratioP1;P1;durP2;ratioP2;P2;SDS_P1;SDS_P2;PMS_P1;PMS_P2;Temp;Humidity;BMP_temperature;BMP_pressure;BME280_temperature;BME280_humidity;BME280_pressure;Samples;Min_cycle;Max_cycle;Signal;HPM_P1;HPM_P2
2022/08/30 00:01:23;;;;;;;6.55;2.65;;;;;;;29.51;35.26;101340.94;5092736;28;20044;-49
2022/08/30 00:03:53;;;;;;;8.85;3.00;;;;;;;29.49;34.97;101333.00;5092724;28;20036;-50
2022/08/30 00:06:22;;;;;;;9.30;3.20;;;;;;;29.48;35.18;101346.22;5093060;28;20027;-52
2022/08/30 00:08:51;;;;;;;7.30;3.03;;;;;;;29.43;35.27;101345.38;5092699;28;20031;-50
2022/08/30 00:11:24;;;;;;;9.93;3.13;;;;;;;29.37;35.19;101341.84;5092918;28;20157;-52
2022/08/30 00:13:54;;;;;;;9.00;3.13;;;;;;;29.37;35.08;101347.13;5093365;28;20021;-51
2022/08/30 00:16:23;;;;;;;9.35;3.30;;;;;;;29.37;35.08;101346.28;5075056;28;20403;-51
2022/08/30 00:18:52;;;;;;;9.43;2.83;;;;;;;29.29;35.46;101343.63;5092823;28;20134;-52
2022/08/30 00:21:21;;;;;;;10.32;3.55;;;;;;;29.32;35.48;101345.38;5092430;28;20393;-52
2022/08/30 00:23:49;;;;;;;10.40;3.03;;;;;;;29.19;35.25;101340.13;5074963;28;20385;-51
2022/08/30 00:26:18;;;;;;;9.00;3.40;;;;;;;29.16;35.61;101337.50;5074656;28;20026;-51
2022/08/30 00:28:46;;;;;;;10.73;3.47;;;;;;;29.27;35.34;101321.59;5075094;28;20538;-52
2022/08/30 00:31:15;;;;;;;6.32;2.85;;;;;;;29.39;35.30;101341.88;5074677;28;20101;-52
2022/08/30 00:33:44;;;;;;;8.15;2.78;;;;;;;29.34;35.48;101335.69;5092901;28;20429;-51
2022/08/30 00:36:12;;;;;;;6.43;2.88;;;;;;;29.22;35.38;101316.34;5092615;28;20028;-53
2022/08/30 00:38:41;;;;;;;13.20;3.30;;;;;;;29.12;35.44;101322.56;5094407;28;20020;-53
2022/08/30 00:41:10;;;;;;;8.18;3.58;;;;;;;29.12;35.66;101330.50;5096021;28;20081;-51
2022/08/30 00:43:38;;;;;;;10.00;2.92;;;;;;;29.18;35.71;101337.50;5096544;28;20035;-52
2022/08/30 00:46:08;;;;;;;8.07;3.00;;;;;;;29.11;35.59;101339.28;5096228;28;20028;-52
2022/08/30 00:48:39;;;;;;;13.45;3.78;;;;;;;29.00;35.70;101344.59;5096521;28;20054;-52
2022/08/30 00:51:11;;;;;;;11.88;3.40;;;;;;;29.06;35.39;101343.69;5078200;28;20055;-53
2022/08/30 00:53:42;;;;;;;10.98;3.67;;;;;;;29.05;35.55;101352.50;5096458;28;20024;-49
2022/08/30 00:56:11;;;;;;;12.02;3.15;;;;;;;29.00;35.72;101348.97;5096485;28;20376;-52
2022/08/30 00:58:42;;;;;;;11.18;3.63;;;;;;;28.93;35.75;101340.19;5077634;28;20044;-52
2022/08/30 01:01:11;;;;;;;9.57;3.50;;;;;;;28.88;35.82;101334.94;5095460;28;20036;-52
2022/08/30 01:03:40;;;;;;;10.27;3.53;;;;;;;28.88;35.85;101342.84;5078041;28;20093;-53
2022/08/30 01:06:09;;;;;;;10.00;3.47;;;;;;;28.90;35.84;101343.75;5096144;28;20448;-51
2022/08/30 01:08:38;;;;;;;9.75;3.47;;;;;;;28.72;35.77;101319.97;5095951;28;20077;-52
2022/08/30 01:11:06;;;;;;;10.05;2.97;;;;;;;28.78;36.10;101334.06;5095643;28;20374;-52
2022/08/30 01:13:35;;;;;;;7.40;2.72;;;;;;;28.90;35.79;101330.53;5095877;28;20024;-52
2022/08/30 01:16:05;;;;;;;7.78;2.80;;;;;;;28.88;35.86;101340.22;5095989;28;20107;-50
2022/08/30 01:18:33;;;;;;;8.15;3.20;;;;;;;28.82;35.76;101321.72;5095942;28;20097;-51
2022/08/30 01:21:11;;;;;;;10.40;3.45;;;;;;;28.80;35.74;101328.78;5095414;28;20028;-52
2022/08/30 01:23:42;;;;;;;9.88;2.97;;;;;;;28.81;36.03;101327.91;5078244;28;20024;-51
2022/08/30 01:26:11;;;;;;;11.88;3.50;;;;;;;28.83;35.92;101331.41;5077978;28;20016;-50
2022/08/30 01:28:41;;;;;;;9.25;3.10;;;;;;;28.89;35.70;101326.13;5095668;28;20054;-48
2022/08/30 01:31:09;;;;;;;9.93;3.38;;;;;;;28.91;35.83;101326.13;5095559;28;20078;-52
2022/08/30 01:33:38;;;;;;;9.38;3.33;;;;;;;28.83;35.81;101327.91;5095931;28;20051;-47
2022/08/30 01:36:11;;;;;;;8.82;3.83;;;;;;;28.81;35.99;101322.63;5095106;28;20024;-49
2022/08/30 01:38:58;;;;;;;11.20;3.45;;;;;;;28.84;35.77;101325.25;5095445;28;20063;-50
2022/08/30 01:41:29;;;;;;;10.43;3.67;;;;;;;28.83;35.69;101320.00;5095368;28;20101;-52
2022/08/30 01:44:00;;;;;;;8.68;3.35;;;;;;;28.80;35.77;101324.38;5095548;28;20036;-53
2022/08/30 01:46:34;;;;;;;6.72;2.47;;;;;;;28.82;35.59;101329.66;5095269;28;20462;-54
2022/08/30 01:49:06;;;;;;;13.93;3.92;;;;;;;28.71;35.98;101332.28;5094543;28;20130;-50
2022/08/30 01:51:34;;;;;;;11.98;3.63;;;;;;;28.64;35.73;101338.47;5094594;28;20416;-52
2022/08/30 01:54:03;;;;;;;8.75;2.83;;;;;;;28.65;35.98;101335.81;5094666;28;20028;-52
2022/08/30 01:56:31;;;;;;;8.00;3.30;;;;;;;28.60;36.19;101342.88;5095219;28;20096;-52
2022/08/30 01:59:00;;;;;;;10.38;3.65;;;;;;;28.58;36.13;101331.44;5094690;28;20139;-52
2022/08/30 02:01:31;;;;;;;9.02;3.53;;;;;;;28.69;35.87;101343.72;5094650;28;20024;-51
2022/08/30 02:03:59;;;;;;;9.82;3.17;;;;;;;28.66;35.95;101339.34;5094777;28;20393;-52
2022/08/30 02:06:28;;;;;;;6.90;3.03;;;;;;;28.69;36.21;101351.66;5094834;28;20024;-54
2022/08/30 02:08:56;;;;;;;8.63;3.30;;;;;;;28.69;35.78;101346.38;5094671;28;20024;-52
2022/08/30 02:11:25;;;;;;;9.30;3.25;;;;;;;28.60;35.75;101332.31;5094562;28;20036;-49
2022/08/30 02:13:54;;;;;;;9.85;3.63;;;;;;;28.60;35.84;101347.25;5094124;28;20524;-51
2022/08/30 02:16:23;;;;;;;7.78;3.70;;;;;;;28.55;36.05;101344.63;5094384;28;20113;-51
2022/08/30 02:18:53;;;;;;;9.20;3.30;;;;;;;28.52;36.13;101341.97;5094476;28;20039;-51
2022/08/30 02:21:22;;;;;;;9.45;3.65;;;;;;;28.50;36.14;101342.00;5094534;28;20106;-51
2022/08/30 02:23:51;;;;;;;10.60;3.70;;;;;;;28.47;35.94;101331.44;5076305;28;20034;-49
2022/08/30 02:26:20;;;;;;;11.35;3.95;;;;;;;28.48;36.34;101338.47;5094578;28;20024;-52
2022/08/30 02:28:48;;;;;;;12.52;3.15;;;;;;;28.50;36.09;101342.00;5075925;28;20394;-51
2022/08/30 02:31:17;;;;;;;12.25;3.67;;;;;;;28.54;36.21;101344.63;5094647;28;20016;-53
2022/08/30 02:33:46;;;;;;;8.32;2.95;;;;;;;28.38;36.17;101320.00;5094470;28;20086;-51
2022/08/30 02:36:14;;;;;;;10.80;3.33;;;;;;;28.53;36.17;101346.38;5094175;28;20056;-52
2022/08/30 02:38:43;;;;;;;8.15;3.20;;;;;;;28.51;36.23;101340.22;5094152;28;20020;-50
2022/08/30 02:41:11;;;;;;;6.45;3.10;;;;;;;28.53;35.92;101346.38;5094278;28;20038;-51
2022/08/30 02:43:40;;;;;;;9.77;3.17;;;;;;;28.49;36.15;101350.78;5094396;28;20016;-50
2022/08/30 02:46:08;;;;;;;5.35;2.80;;;;;;;28.45;36.20;101330.56;5093855;28;20103;-50
2022/08/30 02:48:36;;;;;;;9.95;3.67;;;;;;;28.48;36.28;101345.50;5094190;28;20032;-52
2022/08/30 02:51:07;;;;;;;7.35;3.45;;;;;;;28.47;35.90;101339.34;5059133;28;20514;-52
2022/08/30 02:53:35;;;;;;;9.73;2.92;;;;;;;28.44;36.12;101341.97;5093799;28;20453;-52
2022/08/30 02:56:04;;;;;;;10.50;3.22;;;;;;;28.40;36.16;101349.91;5093846;28;20084;-52
2022/08/30 02:58:33;;;;;;;6.75;3.22;;;;;;;28.31;36.35;101350.78;5072103;28;20125;-52
2022/08/30 03:01:01;;;;;;;8.15;3.50;;;;;;;28.29;36.41;101345.50;5072687;28;20032;-54
2022/08/30 03:03:30;;;;;;;9.75;3.67;;;;;;;28.26;36.53;101348.16;5073559;28;20020;-52
2022/08/30 03:05:58;;;;;;;8.52;3.22;;;;;;;28.38;36.41;101351.66;5073332;28;20116;-52
2022/08/30 03:08:27;;;;;;;8.15;2.97;;;;;;;28.41;36.08;101341.13;5073539;28;20091;-50
2022/08/30 03:10:56;;;;;;;9.27;3.58;;;;;;;28.37;36.02;101355.19;5073205;28;20032;-52
2022/08/30 03:13:25;;;;;;;8.35;3.03;;;;;;;28.35;36.60;101357.81;5073622;28;20056;-50
2022/08/30 03:15:53;;;;;;;12.73;3.67;;;;;;;28.28;36.21;101342.84;5073096;28;20024;-53
2022/08/30 03:18:22;;;;;;;9.65;3.30;;;;;;;28.31;36.42;101358.69;5072314;28;20082;-50
2022/08/30 03:20:51;;;;;;;11.30;3.38;;;;;;;28.35;36.24;101350.78;5073470;28;20384;-51
2022/08/30 03:23:20;;;;;;;9.10;3.08;;;;;;;28.37;36.14;101352.53;5072885;28;20059;-52
2022/08/30 03:25:48;;;;;;;7.00;3.63;;;;;;;28.37;36.22;101341.97;5073463;28;20048;-48
2022/08/30 03:28:17;;;;;;;8.75;3.03;;;;;;;28.35;36.05;101350.78;5071961;28;20473;-48
2022/08/30 03:30:46;;;;;;;6.72;3.15;;;;;;;28.41;36.01;101341.97;5072979;28;20107;-47
2022/08/30 03:33:14;;;;;;;9.00;3.30;;;;;;;28.42;36.04;101341.09;5073061;28;20056;-48
2022/08/30 03:35:43;;;;;;;10.57;3.63;;;;;;;28.32;36.36;101350.78;5073336;28;20029;-50
2022/08/30 03:38:12;;;;;;;7.82;3.08;;;;;;;28.25;36.44;101337.56;5073272;28;20025;-48
2022/08/30 03:40:40;;;;;;;7.13;3.45;;;;;;;28.25;36.10;101356.94;5073213;28;20108;-51
2022/08/30 03:43:09;;;;;;;8.63;3.28;;;;;;;28.25;36.06;101351.66;5072979;28;20020;-53
2022/08/30 03:45:38;;;;;;;11.88;3.85;;;;;;;28.22;36.42;101346.38;5071818;28;20398;-52
2022/08/30 03:48:06;;;;;;;10.98;3.33;;;;;;;28.26;36.30;101356.06;5072976;28;20073;-52
2022/08/30 03:50:35;;;;;;;10.80;3.13;;;;;;;28.16;36.42;101341.97;5072930;28;20085;-51
2022/08/30 03:53:04;;;;;;;7.13;2.85;;;;;;;28.16;36.23;101347.25;5073192;28;20017;-49
2022/08/30 03:55:33;;;;;;;8.70;3.63;;;;;;;28.22;36.39;101345.47;5072997;28;20032;-52
2022/08/30 03:58:01;;;;;;;10.75;4.13;;;;;;;28.11;36.32;101343.72;5076575;28;20043;-51
2022/08/30 04:00:30;;;;;;;9.73;4.03;;;;;;;28.13;36.63;101336.69;5093399;28;20028;-53
2022/08/30 04:02:58;;;;;;;15.88;3.60;;;;;;;28.15;36.50;101331.41;5093142;28;20063;-52
2022/08/30 04:05:26;;;;;;;7.38;3.22;;;;;;;28.09;36.31;101337.53;5092804;28;20113;-51
2022/08/30 04:07:55;;;;;;;8.27;3.00;;;;;;;28.10;36.37;101323.50;5092493;28;20036;-51
2022/08/30 04:10:24;;;;;;;7.95;3.30;;;;;;;28.11;36.42;101327.91;5093011;28;20020;-51
2022/08/30 04:12:52;;;;;;;10.43;3.53;;;;;;;28.13;36.47;101331.41;5075344;28;20051;-52
2022/08/30 04:15:21;;;;;;;8.55;3.30;;;;;;;28.13;36.52;101330.56;5078873;28;20024;-53
2022/08/30 04:17:49;;;;;;;9.70;3.45;;;;;;;28.15;36.45;101319.13;5096724;28;20113;-52
2022/08/30 04:20:18;;;;;;;9.13;3.20;;;;;;;28.13;36.50;101326.16;5097039;28;20026;-51
2022/08/30 04:22:46;;;;;;;7.97;3.10;;;;;;;28.11;36.35;101329.66;5096803;28;20028;-52
2022/08/30 04:25:16;;;;;;;9.90;3.50;;;;;;;27.99;36.70;101323.44;5096605;28;20462;-52
2022/08/30 04:27:46;;;;;;;9.43;3.20;;;;;;;27.92;36.77;101332.25;5096941;28;20035;-55
2022/08/30 04:30:16;;;;;;;7.78;3.38;;;;;;;27.99;36.69;101334.00;5096409;28;20028;-51
2022/08/30 04:32:44;;;;;;;11.48;3.97;;;;;;;27.94;36.71;101334.88;5079179;28;20047;-52
2022/08/30 04:35:14;;;;;;;11.80;3.47;;;;;;;27.98;36.81;101321.69;5096520;28;20153;-52
2022/08/30 04:37:42;;;;;;;7.13;3.35;;;;;;;28.05;36.53;101326.09;5096464;28;20477;-52
2022/08/30 04:40:12;;;;;;;9.02;3.15;;;;;;;28.09;36.36;101320.84;5096988;28;20024;-51
2022/08/30 04:42:42;;;;;;;11.63;4.20;;;;;;;27.93;36.53;101312.00;5096365;28;20028;-52
2022/08/30 04:45:16;;;;;;;7.82;3.08;;;;;;;27.79;36.85;101314.63;5096027;28;20377;-52
2022/08/30 04:47:45;;;;;;;9.60;3.85;;;;;;;27.91;36.59;101327.84;5096485;28;20111;-51
2022/08/30 04:50:15;;;;;;;7.00;3.22;;;;;;;27.85;36.65;101331.34;5078112;28;20035;-52
2022/08/30 04:52:44;;;;;;;10.32;3.58;;;;;;;27.82;36.66;101327.81;5045413;28;20063;-49
2022/08/30 04:55:13;;;;;;;10.65;3.17;;;;;;;27.78;36.79;101318.16;5096096;28;20077;-51
2022/08/30 04:57:42;;;;;;;9.05;3.22;;;;;;;27.84;36.72;101328.69;5078369;28;20034;-50
2022/08/30 05:00:12;;;;;;;10.40;3.33;;;;;;;27.78;36.82;101323.41;5096218;28;20035;-52
2022/08/30 05:02:42;;;;;;;9.32;3.22;;;;;;;27.83;36.90;101326.94;5096138;28;20161;-51
2022/08/30 05:05:53;;;;;;;8.20;3.20;;;;;;;27.77;36.68;101321.66;5095926;28;20392;-51
2022/08/30 05:07:58;;;;;;;8.40;3.38;;;;;;;27.77;36.58;101332.19;5085675;28;20032;-52
2022/08/30 05:10:27;;;;;;;10.07;3.78;;;;;;;27.75;36.73;101337.44;5095552;28;20032;-50
2022/08/30 05:12:55;;;;;;;9.35;3.58;;;;;;;27.68;36.86;101335.69;5096115;28;20027;-50
2022/08/30 05:15:24;;;;;;;12.30;3.53;;;;;;;27.69;36.80;101321.63;5095718;28;20024;-50
2022/08/30 05:17:53;;;;;;;9.52;3.22;;;;;;;27.66;36.88;101335.66;5095982;28;20039;-48
2022/08/30 05:20:21;;;;;;;11.98;3.90;;;;;;;27.68;36.92;101341.81;5095576;28;20081;-47
2022/08/30 05:22:48;;;;;;;9.70;4.28;;;;;;;27.71;36.90;101349.75;5077349;28;20130;-54
2022/08/30 05:25:19;;;;;;;10.90;3.70;;;;;;;27.63;36.99;101342.69;5095257;28;20020;-50
2022/08/30 05:27:48;;;;;;;9.88;3.30;;;;;;;27.71;36.76;101343.63;5095861;28;20031;-48
2022/08/30 05:30:17;;;;;;;7.13;2.85;;;;;;;27.78;36.73;101361.19;5096051;28;20032;-49
2022/08/30 05:32:45;;;;;;;9.60;2.97;;;;;;;27.77;36.87;101348.88;5095375;28;20358;-48
2022/08/30 05:35:14;;;;;;;7.07;2.72;;;;;;;27.79;36.74;101347.13;5095547;28;20020;-48
2022/08/30 05:37:43;;;;;;;8.68;3.35;;;;;;;27.78;36.69;101348.00;5094929;28;20028;-48
2022/08/30 05:40:11;;;;;;;9.63;3.20;;;;;;;27.80;36.66;101353.31;5095117;28;20055;-48
2022/08/30 05:42:41;;;;;;;6.00;2.55;;;;;;;27.79;36.52;101349.78;5095418;28;20040;-52
2022/08/30 05:45:10;;;;;;;5.80;2.88;;;;;;;27.82;36.43;101349.78;5095573;28;20020;-52
2022/08/30 05:47:38;;;;;;;7.07;3.08;;;;;;;27.83;36.72;101353.28;5095311;28;20020;-51
2022/08/30 05:50:07;;;;;;;10.80;3.20;;;;;;;27.77;36.94;101358.56;5095167;28;20048;-51
2022/08/30 05:52:37;;;;;;;5.32;2.80;;;;;;;27.82;36.65;101364.72;5095017;28;20055;-50
2022/08/30 05:55:06;;;;;;;8.75;3.38;;;;;;;27.87;36.55;101361.25;5095238;28;20031;-53
2022/08/30 05:57:36;;;;;;;9.32;3.38;;;;;;;27.81;36.82;101361.22;5095061;28;20537;-52
2022/08/30 06:00:12;;;;;;;10.70;3.53;;;;;;;27.82;36.90;101367.34;5095299;28;20076;-52
2022/08/30 06:02:42;;;;;;;12.32;3.50;;;;;;;27.79;36.78;101370.84;5095151;28;20024;-50
2022/08/30 06:05:11;;;;;;;15.73;4.07;;;;;;;27.82;36.88;101372.63;5076969;28;20032;-52
2022/08/30 06:07:39;;;;;;;11.43;3.63;;;;;;;27.84;36.66;101374.41;5076775;28;20032;-52
2022/08/30 06:10:08;;;;;;;8.77;3.55;;;;;;;27.87;36.76;101381.44;5094848;28;20113;-51
2022/08/30 06:12:36;;;;;;;7.55;2.80;;;;;;;27.81;36.73;101373.50;5094181;28;20389;-52
2022/08/30 06:15:05;;;;;;;7.72;2.90;;;;;;;27.77;36.77;101364.69;5076477;28;20078;-53
2022/08/30 06:17:34;;;;;;;7.80;2.47;;;;;;;27.89;36.88;101377.03;5094953;28;20031;-52
2022/08/30 06:20:02;;;;;;;14.18;3.47;;;;;;;27.89;36.95;101387.59;5076370;28;20056;-52
2022/08/30 06:22:31;;;;;;;8.18;3.00;;;;;;;27.92;36.90;101377.06;5094716;28;20043;-52
2022/08/30 06:25:00;;;;;;;11.55;3.20;;;;;;;27.98;36.66;101376.19;5094377;28;20039;-53
2022/08/30 06:27:30;;;;;;;8.10;2.80;;;;;;;28.00;36.60;101380.59;5060211;28;20081;-52
2022/08/30 06:29:58;;;;;;;9.05;3.15;;;;;;;27.98;36.65;101389.38;5094306;28;20378;-52
2022/08/30 06:32:27;;;;;;;8.98;3.17;;;;;;;27.96;36.71;101389.38;5094188;28;20024;-52
2022/08/30 06:34:55;;;;;;;11.48;3.47;;;;;;;27.99;36.34;101393.78;5093955;28;20522;-51
2022/08/30 06:37:22;;;;;;;9.27;2.72;;;;;;;27.97;36.51;101399.03;5058996;28;20031;-51
2022/08/30 06:39:50;;;;;;;7.35;3.03;;;;;;;28.00;36.61;101403.44;5093870;28;20492;-49
2022/08/30 06:42:18;;;;;;;8.73;3.15;;;;;;;28.02;36.48;101404.34;5093844;28;20039;-52
2022/08/30 06:44:47;;;;;;;10.05;4.07;;;;;;;27.98;36.71;101407.84;5075593;28;20031;-51
2022/08/30 06:47:14;;;;;;;8.75;3.50;;;;;;;28.00;36.66;101408.72;5076476;28;20028;-52
2022/08/30 06:49:43;;;;;;;7.30;3.45;;;;;;;28.00;36.55;101403.44;5093941;28;20043;-52
2022/08/30 06:52:11;;;;;;;6.82;3.00;;;;;;;28.01;36.56;101403.44;5093796;28;20028;-53
2022/08/30 06:54:40;;;;;;;9.13;3.72;;;;;;;27.99;36.69;101406.97;5093626;28;20062;-50
2022/08/30 06:57:08;;;;;;;8.80;3.17;;;;;;;28.05;36.70;101404.31;5093741;28;20377;-52
2022/08/30 06:59:37;;;;;;;9.38;3.58;;;;;;;27.96;36.57;101394.66;5093203;28;20036;-52
2022/08/30 07:02:06;;;;;;;7.60;2.97;;;;;;;28.04;36.80;101421.91;5093598;28;20358;-52
2022/08/30 07:04:35;;;;;;;9.35;3.40;;;;;;;28.07;36.58;101418.41;5093568;28;20029;-51
2022/08/30 07:07:03;;;;;;;9.30;3.28;;;;;;;28.11;36.76;101416.69;5093853;28;20023;-51
2022/08/30 07:09:32;;;;;;;8.68;3.45;;;;;;;28.12;36.70;101418.47;5093220;28;20358;-52
2022/08/30 07:12:03;;;;;;;9.65;3.17;;;;;;;28.14;36.68;101416.69;5093614;28;20024;-53
2022/08/30 07:14:31;;;;;;;8.07;2.95;;;;;;;28.12;36.63;101406.16;5093555;28;20028;-51
2022/08/30 07:17:00;;;;;;;11.02;3.00;;;;;;;28.01;36.62;101389.38;5093778;28;20373;-50
2022/08/30 07:19:28;;;;;;;9.35;3.38;;;;;;;28.12;36.52;101403.50;5093489;28;20081;-51
2022/08/30 07:21:57;;;;;;;12.35;3.83;;;;;;;28.16;36.55;101413.19;5093081;28;20491;-49
2022/08/30 07:24:25;;;;;;;12.20;3.35;;;;;;;28.22;36.55;101400.88;5075478;28;20032;-50
2022/08/30 07:26:54;;;;;;;10.00;4.00;;;;;;;28.23;36.46;101408.81;5093351;28;20101;-48
2022/08/30 07:29:22;;;;;;;7.75;3.22;;;;;;;28.22;36.55;101412.31;5093045;28;20488;-48
2022/08/30 07:31:51;;;;;;;8.52;3.30;;;;;;;28.28;36.43;101422.00;5093475;28;20024;-51
2022/08/30 07:34:19;;;;;;;12.02;3.50;;;;;;;28.26;36.53;101419.38;5093242;28;20381;-49
2022/08/30 07:36:48;;;;;;;9.73;3.10;;;;;;;28.27;36.33;101428.16;5093202;28;20035;-49
2022/08/30 07:39:16;;;;;;;10.27;3.53;;;;;;;28.31;36.39;101433.44;5092810;28;20028;-48
2022/08/30 07:41:44;;;;;;;6.32;2.83;;;;;;;28.30;36.29;101442.22;5093182;28;20497;-49
2022/08/30 07:44:13;;;;;;;11.35;3.25;;;;;;;28.30;36.69;101441.34;5093304;28;20084;-48
2022/08/30 07:46:42;;;;;;;8.57;3.10;;;;;;;28.32;36.81;101443.09;5093338;28;20496;-51
2022/08/30 07:49:11;;;;;;;8.73;3.72;;;;;;;28.33;36.55;101438.72;5092518;28;20039;-51
2022/08/30 07:51:40;;;;;;;8.15;3.30;;;;;;;28.38;36.39;101446.66;5075265;28;20051;-51
2022/08/30 07:54:08;;;;;;;10.05;3.10;;;;;;;28.40;37.02;101450.16;5093013;28;20051;-50
2022/08/30 07:56:36;;;;;;;7.82;2.85;;;;;;;28.40;36.66;101458.09;5093124;28;20112;-51
2022/08/30 07:59:05;;;;;;;9.27;3.22;;;;;;;28.47;36.25;101455.47;5092829;28;20156;-48
2022/08/30 08:01:34;;;;;;;9.10;3.15;;;;;;;28.48;36.20;101456.31;5092858;28;20028;-52
2022/08/30 08:04:02;;;;;;;9.00;3.35;;;;;;;28.45;36.47;101454.56;5092801;28;20119;-52
2022/08/30 08:06:31;;;;;;;11.23;3.58;;;;;;;28.53;36.08;101461.66;5093086;28;20028;-51
2022/08/30 08:09:01;;;;;;;7.32;3.17;;;;;;;28.48;36.20;101465.16;5092969;28;20439;-50
2022/08/30 08:11:30;;;;;;;10.02;3.20;;;;;;;28.47;36.48;101468.66;5092949;28;20104;-50
2022/08/30 08:13:59;;;;;;;7.57;2.92;;;;;;;28.48;36.40;101453.69;5092472;28;20035;-51
2022/08/30 08:16:29;;;;;;;5.32;2.70;;;;;;;28.56;36.42;101478.34;5092680;28;20446;-52
2022/08/30 08:18:57;;;;;;;10.43;3.45;;;;;;;28.57;36.15;101477.47;5092511;28;20458;-52
2022/08/30 08:21:24;;;;;;;8.40;3.20;;;;;;;28.65;35.85;101470.44;5090927;28;20496;-51
2022/08/30 08:23:52;;;;;;;9.13;3.13;;;;;;;28.56;36.28;101469.53;5093178;28;20067;-51
2022/08/30 08:26:20;;;;;;;9.85;2.97;;;;;;;28.68;36.01;101476.59;5100157;28;20078;-54
2022/08/30 08:28:47;;;;;;;7.32;2.55;;;;;;;28.73;35.81;101473.13;5095037;28;20016;-53
2022/08/30 08:31:17;;;;;;;8.20;3.00;;;;;;;28.69;35.68;101476.63;5091946;28;20465;-54
2022/08/30 08:33:44;;;;;;;10.23;3.53;;;;;;;28.57;35.86;101459.00;5092382;28;20416;-61
2022/08/30 08:36:11;;;;;;;7.45;3.15;;;;;;;28.56;35.78;101469.53;5092533;28;20028;-53
2022/08/30 08:38:39;;;;;;;14.57;3.88;;;;;;;28.65;35.63;101481.00;5092202;28;20039;-53
2022/08/30 08:41:34;;;;;;;8.02;3.40;;;;;;;28.72;35.61;101475.72;5091978;28;20099;-52
2022/08/30 08:44:07;;;;;;;13.98;3.10;;;;;;;28.63;35.50;101489.78;5092186;28;20024;-54
2022/08/30 08:46:53;;;;;;;6.45;2.92;;;;;;;28.70;35.43;101477.47;5092074;28;20446;-54
2022/08/30 08:49:21;;;;;;;8.88;3.08;;;;;;;28.70;35.33;101485.41;5073997;28;20675;-53
2022/08/30 08:54:55;;;;;;;7.32;3.30;;;;;;;28.64;35.59;101484.50;5088081;28;20059;-52
2022/08/30 08:57:23;;;;;;;8.68;3.00;;;;;;;28.66;35.52;101490.66;5066907;28;20028;-53
2022/08/30 08:59:53;;;;;;;9.50;3.13;;;;;;;28.70;35.55;101482.75;5075649;28;20040;-52
2022/08/30 09:02:43;;;;;;;10.48;3.08;;;;;;;28.70;35.67;101491.59;5077102;28;20028;-52
2022/08/30 09:05:14;;;;;;;12.25;3.25;;;;;;;28.73;35.80;101491.59;5078854;28;20028;-54
2022/08/30 09:07:45;;;;;;;12.90;4.05;;;;;;;28.80;35.34;101500.41;5077464;28;20441;-54
2022/08/30 09:10:12;;;;;;;11.98;3.22;;;;;;;28.79;35.72;101494.25;5095048;28;20036;-53
2022/08/30 09:12:40;;;;;;;9.02;2.90;;;;;;;28.76;35.70;101496.88;5077093;28;20043;-54
2022/08/30 09:15:16;;;;;;;7.38;3.10;;;;;;;28.70;36.04;101494.22;5095503;28;20031;-51
2022/08/30 09:18:04;;;;;;;9.05;3.22;;;;;;;28.76;36.12;101496.00;5095759;28;20039;-52
2022/08/30 09:20:35;;;;;;;8.93;3.22;;;;;;;28.83;35.72;101505.69;5077185;28;20103;-54
2022/08/30 09:23:13;;;;;;;8.00;3.05;;;;;;;28.76;35.91;101501.28;5094930;28;20077;-53
2022/08/30 09:25:52;;;;;;;7.25;2.72;;;;;;;28.70;35.77;101507.41;5095065;28;20020;-54
2022/08/30 09:28:30;;;;;;;7.25;3.35;;;;;;;28.67;35.84;101486.28;5095468;28;20032;-53
2022/08/30 09:31:28;;;;;;;7.80;3.22;;;;;;;28.85;35.53;101506.56;5094959;28;20370;-53
2022/08/30 09:33:55;;;;;;;13.32;3.15;;;;;;;28.89;35.62;101503.06;5087968;28;20046;-54
2022/08/30 09:36:27;;;;;;;7.63;2.80;;;;;;;28.84;35.38;101504.81;5095015;28;20470;-53
2022/08/30 09:39:01;;;;;;;8.57;3.92;;;;;;;28.83;35.54;101496.91;5095164;28;20028;-51
2022/08/30 09:41:41;;;;;;;7.28;2.70;;;;;;;28.83;36.03;101497.75;5076124;28;20114;-52
2022/08/30 09:44:23;;;;;;;19.23;3.05;;;;;;;28.94;35.69;101508.34;5094600;28;20036;-49
2022/08/30 09:46:53;;;;;;;4.20;2.65;;;;;;;28.81;35.80;101499.53;5095200;28;20107;-53
2022/08/30 09:49:28;;;;;;;8.35;3.38;;;;;;;28.82;35.89;101503.91;5094351;28;20103;-54
2022/08/30 09:52:15;;;;;;;6.78;2.70;;;;;;;28.82;35.67;101511.84;5093872;28;20483;-52
2022/08/30 09:55:16;;;;;;;12.07;3.55;;;;;;;28.82;36.24;101511.84;5093843;28;20644;-55
2022/08/30 09:58:08;;;;;;;12.93;3.60;;;;;;;28.86;35.93;101515.38;5074211;28;20111;-53
2022/08/30 10:00:47;;;;;;;8.85;3.10;;;;;;;28.88;35.91;101510.97;5085874;28;20101;-52
2022/08/30 10:03:16;;;;;;;8.88;3.05;;;;;;;28.89;36.06;101516.25;5093457;28;20028;-54
2022/08/30 10:05:45;;;;;;;8.18;3.10;;;;;;;28.85;36.08;101511.84;5094649;28;20024;-53
2022/08/30 10:08:18;;;;;;;9.25;3.42;;;;;;;28.79;36.38;101515.38;5076379;28;20024;-55
2022/08/30 10:11:00;;;;;;;6.65;3.30;;;;;;;28.84;36.17;101515.38;5075215;28;20107;-52
2022/08/30 10:13:31;;;;;;;8.85;3.05;;;;;;;28.89;36.21;101513.63;5075642;28;20028;-53
2022/08/30 10:16:23;;;;;;;9.88;3.28;;;;;;;28.90;36.00;101519.78;5076364;28;20370;-53
2022/08/30 10:19:10;;;;;;;8.27;3.58;;;;;;;28.92;35.96;101520.66;5087591;28;20044;-53
2022/08/30 10:22:01;;;;;;;10.77;2.70;;;;;;;28.96;36.23;101520.66;5082563;28;20043;-55
2022/08/30 10:24:36;;;;;;;6.68;3.13;;;;;;;29.01;35.97;101517.13;5085577;28;20036;-53
2022/08/30 10:27:10;;;;;;;11.43;3.58;;;;;;;29.00;35.74;101512.75;5093905;28;20024;-53
2022/08/30 10:29:51;;;;;;;7.82;2.67;;;;;;;28.97;36.07;101513.63;5075522;28;20039;-52
2022/08/30 10:32:24;;;;;;;11.10;3.40;;;;;;;29.06;36.01;101512.75;5093211;28;20035;-53
2022/08/30 10:34:56;;;;;;;10.07;3.10;;;;;;;29.08;35.88;101503.94;5075780;28;20040;-54
2022/08/30 10:37:27;;;;;;;5.57;3.15;;;;;;;29.06;36.12;101504.81;5093563;28;20032;-54
2022/08/30 10:43:00;;;;;;;9.02;3.40;;;;;;;29.08;36.20;101506.56;5089666;28;20039;-53
2022/08/30 10:45:30;;;;;;;12.32;3.17;;;;;;;29.13;36.03;101501.28;5093193;28;20089;-53
2022/08/30 10:48:00;;;;;;;10.30;4.05;;;;;;;29.12;36.38;101504.84;5075699;28;20464;-54
2022/08/30 10:50:40;;;;;;;9.98;3.28;;;;;;;29.15;36.09;101507.44;5093962;28;20024;-54
2022/08/30 10:53:21;;;;;;;9.15;3.33;;;;;;;29.22;35.96;101503.94;5074817;28;20032;-53
2022/08/30 10:55:53;;;;;;;14.40;3.92;;;;;;;29.09;36.39;101483.69;5093571;28;20048;-53
2022/08/30 10:58:21;;;;;;;8.20;3.30;;;;;;;29.18;36.13;101493.38;5075420;28;20075;-52
2022/08/30 11:01:09;;;;;;;8.38;3.60;;;;;;;29.18;36.38;101499.53;5093543;28;20038;-54
2022/08/30 11:03:41;;;;;;;5.82;2.85;;;;;;;29.22;36.44;101496.00;5084223;28;20032;-52
2022/08/30 11:06:12;;;;;;;6.88;2.95;;;;;;;29.23;36.38;101497.78;5093459;28;20040;-54
2022/08/30 11:08:58;;;;;;;12.80;3.78;;;;;;;29.35;35.83;101501.31;5074365;28;20028;-53
2022/08/30 11:11:46;;;;;;;8.23;3.30;;;;;;;29.26;36.00;101500.41;5092798;28;20032;-49
2022/08/30 11:14:16;;;;;;;8.98;3.20;;;;;;;29.31;36.14;101488.94;5083401;28;20500;-50
2022/08/30 11:16:47;;;;;;;8.27;3.30;;;;;;;29.36;35.93;101479.28;5093129;28;20035;-50
2022/08/30 11:19:28;;;;;;;13.55;3.45;;;;;;;29.33;35.91;101484.53;5092890;28;20024;-52
2022/08/30 11:22:21;;;;;;;8.77;3.30;;;;;;;29.39;36.21;101484.56;5092865;28;20107;-49
2022/08/30 11:24:59;;;;;;;10.60;3.63;;;;;;;29.34;36.56;101479.28;5074609;28;20378;-53
2022/08/30 11:27:49;;;;;;;8.45;3.30;;;;;;;29.35;36.20;101474.88;5093065;28;20032;-50
2022/08/30 11:30:26;;;;;;;9.13;3.80;;;;;;;29.39;36.31;101463.44;5074667;28;20031;-51
2022/08/30 11:33:12;;;;;;;6.78;3.35;;;;;;;29.44;36.09;101463.41;5092780;28;20020;-52
2022/08/30 11:35:42;;;;;;;11.20;3.35;;;;;;;29.49;35.92;101466.94;5082859;28;20043;-50
2022/08/30 11:38:16;;;;;;;14.30;3.33;;;;;;;29.48;35.97;101458.09;5092918;28;20481;-48
2022/08/30 11:40:48;;;;;;;13.05;3.53;;;;;;;29.49;36.28;101457.22;5092880;28;20550;-51
2022/08/30 11:43:34;;;;;;;10.73;3.72;;;;;;;29.47;36.53;101452.84;5092527;28;20027;-49
2022/08/30 11:46:23;;;;;;;10.88;3.65;;;;;;;29.48;36.33;101449.31;5092583;28;20036;-54